createdAt,value
2023-03-08T00:00:09.720Z,3.4
2023-03-08T00:06:29.537Z,3.4
2023-03-08T00:12:52.511Z,3
2023-03-08T00:19:12.526Z,3
2023-03-08T00:25:35.576Z,4.3
2023-03-08T00:31:55.592Z,4.3
2023-03-08T00:38:18.635Z,5.9
2023-03-08T00:44:38.590Z,5.9
2023-03-08T00:51:01.663Z,2.7
2023-03-08T00:57:21.616Z,2.7
2023-03-08T01:03:44.706Z,2.8
2023-03-08T01:10:04.636Z,2.8
2023-03-08T01:16:27.527Z,3.2
2023-03-08T01:22:47.550Z,3.2
2023-03-08T01:29:10.514Z,6.3
2023-03-08T01:35:30.691Z,6.3
2023-03-08T01:41:53.698Z,2.7
2023-03-08T01:48:13.564Z,2.7
2023-03-08T01:54:36.755Z,3.6
2023-03-08T02:00:56.642Z,3.6
2023-03-08T02:07:19.604Z,3.6
2023-03-08T02:13:39.482Z,3.6
2023-03-08T02:20:02.686Z,2.4
2023-03-08T02:26:22.616Z,2.4
2023-03-08T02:32:45.810Z,2.2
2023-03-08T02:39:05.603Z,2.2
2023-03-08T02:45:28.572Z,3.3
2023-03-08T02:51:48.647Z,3.3
2023-03-08T02:58:11.635Z,3.3
2023-03-08T03:04:31.564Z,3.3
2023-03-08T03:10:54.647Z,3.6
2023-03-08T03:17:14.568Z,3.6
2023-03-08T03:23:37.751Z,3.8
2023-03-08T03:29:57.508Z,3.8
2023-03-08T03:36:20.626Z,5.2
2023-03-08T03:42:40.504Z,5.2
2023-03-08T03:49:03.651Z,7.1
2023-03-08T03:55:23.590Z,7.1
2023-03-08T04:01:46.680Z,2.5
2023-03-08T04:24:35.493Z,3.5
2023-03-08T04:30:55.481Z,3.5
2023-03-08T04:37:18.658Z,4
2023-03-08T04:43:38.650Z,4
2023-03-08T04:50:01.578Z,4.7
2023-03-08T04:56:21.612Z,4.7
2023-03-08T05:02:44.624Z,7.4
2023-03-08T05:09:04.567Z,7.4
2023-03-08T05:15:27.593Z,5.8
2023-03-08T05:21:47.647Z,5.8
2023-03-08T05:28:10.564Z,7.9
2023-03-08T05:34:30.591Z,7.9
2023-03-08T05:40:53.657Z,5.5
2023-03-08T05:47:13.619Z,5.5
2023-03-08T05:53:36.571Z,4.2
2023-03-08T05:59:56.625Z,4.2
2023-03-08T06:06:19.586Z,3.6
2023-03-08T06:12:39.611Z,3.6
2023-03-08T06:19:02.657Z,5.8
2023-03-08T06:25:22.691Z,5.8
2023-03-08T06:31:45.648Z,6.3
2023-03-08T06:38:05.717Z,6.3
2023-03-08T06:44:28.682Z,3.8
2023-03-08T06:50:48.475Z,3.8
2023-03-08T06:57:11.581Z,5.3
2023-03-08T07:03:31.551Z,5.3
2023-03-08T07:09:54.560Z,7.6
2023-03-08T07:16:14.653Z,7.6
2023-03-08T07:22:37.520Z,5.2
2023-03-08T07:28:57.517Z,5.2
2023-03-08T07:35:20.537Z,6.3
2023-03-08T07:41:40.502Z,6.3
2023-03-08T07:48:03.526Z,5.7
2023-03-08T07:54:23.525Z,5.7
2023-03-08T08:00:46.547Z,6.6
2023-03-08T08:07:06.516Z,6.6
2023-03-08T08:13:29.571Z,5.7
2023-03-08T08:19:49.674Z,5.7
2023-03-08T08:26:12.593Z,8.1
2023-03-08T08:32:32.628Z,8.1
2023-03-08T08:38:55.721Z,4.5
2023-03-08T08:45:15.720Z,4.5
2023-03-08T08:51:38.715Z,5.8
2023-03-08T08:57:58.747Z,5.8
2023-03-08T09:04:21.886Z,7.4
2023-03-08T09:26:52.442Z,8.9
2023-03-08T09:33:12.533Z,8.9
2023-03-08T09:39:35.474Z,8
2023-03-08T09:45:55.565Z,8
2023-03-08T09:52:18.542Z,8.4
2023-03-08T09:58:38.645Z,8.4
2023-03-08T10:05:12.165Z,14.4
2023-03-08T10:11:21.509Z,14.4
2023-03-08T10:17:44.539Z,8.3
2023-03-08T10:24:04.751Z,8.3
2023-03-08T10:30:27.742Z,12
2023-03-08T10:36:47.708Z,12
2023-03-08T10:43:13.059Z,8.9
2023-03-08T10:49:32.526Z,8.9
2023-03-08T10:55:55.676Z,8.7
2023-03-08T11:02:15.664Z,8.7
2023-03-08T11:08:38.696Z,6.9
2023-03-08T11:14:58.859Z,6.9
2023-03-08T11:21:21.751Z,6.5
2023-03-08T11:27:41.843Z,6.5
2023-03-08T11:34:04.737Z,6.7
2023-03-08T11:40:24.661Z,6.7
2023-03-08T11:46:47.683Z,5.1
2023-03-08T11:53:07.689Z,5.1
2023-03-08T11:59:30.529Z,5.2
2023-03-08T12:05:50.754Z,5.2
2023-03-08T12:12:14.218Z,5.1
2023-03-08T12:18:33.528Z,5.1
2023-03-08T12:24:57.740Z,6.3
2023-03-08T12:31:26.818Z,6.3
2023-03-08T12:37:40.641Z,4.7
2023-03-08T12:44:00.542Z,4.7
2023-03-08T12:50:23.647Z,4.9
2023-03-08T12:56:43.671Z,4.9
2023-03-08T13:03:06.640Z,7.1
2023-03-08T13:09:26.725Z,7.1
2023-03-08T13:15:51.081Z,8.6
2023-03-08T13:22:09.683Z,8.6
2023-03-08T13:28:46.042Z,5.9
2023-03-08T13:34:52.649Z,5.9
2023-03-08T13:41:15.586Z,5.2
2023-03-08T13:47:35.620Z,5.2
2023-03-08T13:53:58.590Z,6.6
2023-03-08T14:00:18.683Z,6.6
2023-03-08T14:06:41.716Z,6.7
2023-03-08T14:13:01.697Z,6.7
2023-03-08T14:30:32.124Z,8.6
2023-03-08T14:36:51.516Z,8.6
2023-03-08T14:43:14.505Z,8.4
2023-03-08T14:49:34.586Z,8.4
2023-03-08T14:55:57.538Z,4.2
2023-03-08T15:02:17.626Z,4.2
2023-03-08T15:08:40.667Z,5.1
2023-03-08T15:15:00.498Z,5.1
2023-03-08T15:21:23.624Z,4.8
2023-03-08T15:27:43.518Z,4.8
2023-03-08T15:34:06.507Z,6.4
2023-03-08T15:40:26.627Z,6.4
2023-03-08T15:46:52.296Z,4.8
2023-03-08T15:53:09.507Z,4.8
2023-03-08T15:59:32.577Z,4.4
2023-03-08T16:05:52.525Z,4.4
2023-03-08T16:12:15.507Z,2.7
2023-03-08T16:18:35.559Z,2.7
2023-03-08T16:24:58.579Z,3.3
2023-03-08T16:31:18.519Z,3.3
2023-03-08T16:37:41.595Z,4.9
2023-03-08T16:44:01.562Z,4.9
2023-03-08T16:50:24.588Z,4.9
2023-03-08T16:56:44.625Z,4.9
2023-03-08T17:03:07.608Z,4.2
2023-03-08T17:09:27.543Z,4.2
2023-03-08T17:15:50.640Z,4.7
2023-03-08T17:22:10.658Z,4.7
2023-03-08T17:28:33.678Z,3.6
2023-03-08T17:34:53.589Z,3.6
2023-03-08T17:41:16.753Z,5.1
2023-03-08T17:47:36.572Z,5.1
2023-03-08T17:53:59.568Z,6
2023-03-08T18:00:19.670Z,6
2023-03-08T18:06:42.755Z,4.2
2023-03-08T18:13:02.622Z,4.2
2023-03-08T18:19:25.786Z,5.5
2023-03-08T18:25:45.637Z,5.5
2023-03-08T18:32:08.753Z,3.8
2023-03-08T18:38:28.634Z,3.8
2023-03-08T18:44:51.624Z,6
2023-03-08T18:51:11.863Z,6
2023-03-08T18:57:34.805Z,6.6
2023-03-08T19:03:54.667Z,6.6
2023-03-08T19:10:17.641Z,4.3
2023-03-08T19:16:37.869Z,4.3
2023-03-08T19:40:37.451Z,17.5
2023-03-08T19:47:00.507Z,17.5
2023-03-08T19:53:20.640Z,17.5
2023-03-08T19:59:43.737Z,7.4
2023-03-08T20:06:03.614Z,7.4
2023-03-08T20:12:26.672Z,11.1
2023-03-08T20:18:46.715Z,11.1
2023-03-08T20:25:09.625Z,9.7
2023-03-08T20:31:29.604Z,9.7
2023-03-08T20:37:52.659Z,10.6
2023-03-08T20:44:12.668Z,10.6
2023-03-08T20:50:35.577Z,7.1
2023-03-08T20:56:55.538Z,7.1
2023-03-08T21:03:18.627Z,10.3
2023-03-08T21:09:38.695Z,10.3
2023-03-08T21:16:01.586Z,10.4
2023-03-08T21:22:21.716Z,10.4
2023-03-08T21:28:44.645Z,7.6
2023-03-08T21:35:04.623Z,7.6
2023-03-08T21:41:27.709Z,7.8
2023-03-08T21:47:47.556Z,7.8
2023-03-08T21:54:10.589Z,11.7
2023-03-08T22:00:30.654Z,11.7
2023-03-08T22:06:53.868Z,12.1
2023-03-08T22:13:13.628Z,12.1
2023-03-08T22:19:36.647Z,10
2023-03-08T22:25:56.487Z,10
2023-03-08T22:32:19.697Z,11.8
2023-03-08T22:38:39.654Z,11.8
2023-03-08T22:45:02.584Z,12.1
2023-03-08T22:51:22.638Z,12.1
2023-03-08T22:57:45.531Z,13.5
2023-03-08T23:22:00.595Z,26.3
2023-03-08T23:28:20.469Z,26.3
2023-03-08T23:34:43.550Z,26.3
2023-03-08T23:41:03.563Z,26.3
2023-03-08T23:47:26.599Z,10.7
2023-03-08T23:53:46.619Z,10.7
